createdAt,value
2023-05-06T00:00:12.916Z,77.99
2023-05-06T00:02:39.727Z,77.60
2023-05-06T00:05:07.079Z,77.93
2023-05-06T00:07:33.714Z,77.59
2023-05-06T00:10:00.294Z,77.07
2023-05-06T00:12:27.069Z,77.61
2023-05-06T00:14:53.679Z,77.68
2023-05-06T00:17:20.519Z,77.39
2023-05-06T00:19:47.063Z,77.73
2023-05-06T00:22:13.825Z,77.71
2023-05-06T00:24:40.443Z,78.34
2023-05-06T00:27:08.913Z,78.65
2023-05-06T00:29:35.624Z,78.67
2023-05-06T00:32:02.278Z,78.49
2023-05-06T00:34:29.115Z,78.64
2023-05-06T00:39:49.999Z,77.94
2023-05-06T00:42:16.593Z,78.64
2023-05-06T00:44:43.147Z,78.37
2023-05-06T00:47:09.899Z,79.34
2023-05-06T00:49:36.551Z,78.38
2023-05-06T00:52:03.818Z,78.86
2023-05-06T00:54:30.936Z,79.23
2023-05-06T00:56:57.740Z,79.42
2023-05-06T00:59:24.433Z,79.00
2023-05-06T01:01:52.338Z,79.63
2023-05-06T01:04:19.012Z,78.85
2023-05-06T01:06:50.031Z,78.95
2023-05-06T01:09:26.014Z,80.73
2023-05-06T01:12:04.370Z,80.31
2023-05-06T01:14:47.337Z,81.23
2023-05-06T01:17:18.518Z,80.04
2023-05-06T01:19:50.831Z,80.02
2023-05-06T01:22:18.832Z,79.92
2023-05-06T01:24:46.828Z,80.69
2023-05-06T01:27:14.595Z,80.69
2023-05-06T01:29:43.280Z,80.20
2023-05-06T01:32:15.735Z,80.37
2023-05-06T01:35:17.012Z,82.10
2023-05-06T01:37:56.511Z,81.77
2023-05-06T01:40:26.334Z,81.12
2023-05-06T01:42:53.776Z,80.84
2023-05-06T01:45:22.212Z,80.44
2023-05-06T01:47:49.104Z,81.04
2023-05-06T01:50:16.032Z,80.34
2023-05-06T01:52:42.960Z,80.78
2023-05-06T01:55:10.915Z,80.73
2023-05-06T01:57:37.680Z,80.57
2023-05-06T02:00:04.875Z,80.79
2023-05-06T02:02:31.424Z,80.65
2023-05-06T02:04:58.131Z,80.83
2023-05-06T02:07:24.842Z,80.83
2023-05-06T02:09:51.270Z,80.63
2023-05-06T02:12:18.026Z,80.68
2023-05-06T02:14:44.609Z,81.05
2023-05-06T02:17:11.090Z,81.06
2023-05-06T02:19:37.839Z,80.83
2023-05-06T02:22:04.446Z,80.70
2023-05-06T02:24:31.063Z,81.18
2023-05-06T02:26:57.683Z,81.35
2023-05-06T02:29:24.288Z,80.85
2023-05-06T02:31:51.108Z,80.75
2023-05-06T02:34:17.716Z,81.03
2023-05-06T02:36:44.366Z,81.16
2023-05-06T02:39:11.017Z,80.90
2023-05-06T02:41:37.594Z,81.11
2023-05-06T02:44:04.703Z,81.07
2023-05-06T02:46:31.213Z,81.32
2023-05-06T02:48:57.733Z,80.38
2023-05-06T02:51:24.300Z,81.22
2023-05-06T02:53:50.900Z,81.15
2023-05-06T02:56:17.457Z,81.50
2023-05-06T02:58:43.975Z,81.30
2023-05-06T03:01:10.653Z,81.62
2023-05-06T03:03:37.327Z,81.18
2023-05-06T03:06:04.008Z,81.04
2023-05-06T03:08:30.728Z,81.11
2023-05-06T03:10:57.282Z,80.98
2023-05-06T03:13:24.028Z,81.43
2023-05-06T03:15:54.248Z,81.66
2023-05-06T03:18:21.139Z,81.57
2023-05-06T03:20:56.435Z,82.27
2023-05-06T03:23:23.211Z,81.59
2023-05-06T03:25:49.774Z,81.40
2023-05-06T03:28:16.862Z,81.42
2023-05-06T03:30:43.501Z,81.54
2023-05-06T03:33:10.097Z,81.48
2023-05-06T03:35:36.779Z,81.56
2023-05-06T03:38:03.369Z,81.67
2023-05-06T03:40:39.213Z,81.98
2023-05-06T03:43:05.777Z,81.80
2023-05-06T03:45:32.557Z,82.08
2023-05-06T03:47:59.233Z,81.90
2023-05-06T03:50:25.815Z,81.56
2023-05-06T03:52:52.847Z,81.88
2023-05-06T03:55:19.301Z,81.50
2023-05-06T03:57:45.919Z,82.16
2023-05-06T04:00:12.935Z,81.55
2023-05-06T04:02:39.494Z,81.72
2023-05-06T04:05:07.717Z,82.38
2023-05-06T04:07:34.507Z,82.15
2023-05-06T04:10:01.225Z,81.70
2023-05-06T04:12:27.769Z,82.07
2023-05-06T04:14:54.267Z,82.01
2023-05-06T04:17:20.977Z,82.52
2023-05-06T04:19:47.589Z,83.01
2023-05-06T04:25:09.234Z,82.70
2023-05-06T04:27:35.886Z,82.91
2023-05-06T04:30:02.450Z,83.23
2023-05-06T04:32:29.286Z,82.84
2023-05-06T04:34:56.872Z,83.59
2023-05-06T04:37:23.374Z,83.54
2023-05-06T04:39:50.156Z,83.64
2023-05-06T04:42:16.773Z,83.50
2023-05-06T04:44:43.638Z,82.58
2023-05-06T04:47:10.265Z,82.59
2023-05-06T04:49:37.056Z,83.33
2023-05-06T04:52:04.220Z,83.49
2023-05-06T04:54:30.884Z,83.25
2023-05-06T04:56:57.458Z,83.99
2023-05-06T04:59:24.226Z,84.17
2023-05-06T05:01:50.814Z,83.85
2023-05-06T05:04:17.476Z,84.06
2023-05-06T05:06:44.108Z,83.36
2023-05-06T05:09:10.753Z,84.04
2023-05-06T05:11:38.535Z,84.56
2023-05-06T05:14:05.174Z,83.98
2023-05-06T05:16:31.872Z,84.04
2023-05-06T05:18:59.834Z,84.78
2023-05-06T05:21:28.477Z,85.18
2023-05-06T05:23:55.067Z,85.78
2023-05-06T05:26:21.804Z,86.03
2023-05-06T05:28:48.343Z,86.03
2023-05-06T05:31:14.884Z,86.84
2023-05-06T05:33:41.459Z,86.56
2023-05-06T05:36:08.490Z,87.26
2023-05-06T05:38:34.971Z,86.94
2023-05-06T05:41:01.496Z,86.83
2023-05-06T05:43:28.027Z,87.29
2023-05-06T05:45:54.609Z,87.16
2023-05-06T05:48:21.160Z,87.59
2023-05-06T05:50:47.605Z,87.73
2023-05-06T05:53:14.131Z,87.38
2023-05-06T05:55:40.791Z,87.17
2023-05-06T05:58:07.274Z,86.92
2023-05-06T06:00:33.760Z,87.36
2023-05-06T06:03:00.743Z,87.10
2023-05-06T06:05:27.536Z,87.25
2023-05-06T06:07:54.112Z,86.85
2023-05-06T06:10:20.750Z,87.85
2023-05-06T06:12:47.278Z,87.12
2023-05-06T06:15:13.857Z,87.15
2023-05-06T06:17:41.698Z,87.42
2023-05-06T06:20:09.168Z,87.27
2023-05-06T06:22:35.987Z,86.92
2023-05-06T06:25:02.654Z,87.03
2023-05-06T06:27:29.367Z,87.21
2023-05-06T06:29:55.910Z,86.69
2023-05-06T06:32:22.476Z,86.96
2023-05-06T06:34:49.072Z,87.33
2023-05-06T06:37:15.703Z,87.60
2023-05-06T06:39:42.585Z,88.18
2023-05-06T06:42:09.132Z,88.36
2023-05-06T06:44:36.316Z,89.18
2023-05-06T06:47:03.254Z,89.31
2023-05-06T06:49:31.410Z,89.15
2023-05-06T06:51:58.023Z,89.87
2023-05-06T06:54:24.711Z,89.49
2023-05-06T06:56:56.194Z,90.36
2023-05-06T06:59:23.141Z,90.25
2023-05-06T07:01:49.715Z,90.95
2023-05-06T07:04:16.456Z,90.71
2023-05-06T07:06:43.023Z,91.26
2023-05-06T07:09:09.734Z,90.71
2023-05-06T07:11:36.384Z,91.35
2023-05-06T07:14:03.803Z,91.30
2023-05-06T07:16:30.416Z,89.87
2023-05-06T07:18:56.999Z,90.87
2023-05-06T07:21:23.712Z,89.77
2023-05-06T07:23:50.422Z,89.85
2023-05-06T07:26:17.141Z,89.18
2023-05-06T07:28:43.992Z,89.20
2023-05-06T07:31:10.828Z,90.68
2023-05-06T07:33:37.883Z,90.33
2023-05-06T07:36:04.822Z,88.79
2023-05-06T07:38:31.379Z,89.78
2023-05-06T07:40:58.165Z,88.65
2023-05-06T07:43:25.127Z,88.05
2023-05-06T07:45:51.821Z,87.47
2023-05-06T07:48:20.116Z,87.26
2023-05-06T07:50:47.007Z,87.44
2023-05-06T07:53:13.946Z,86.92
2023-05-06T07:55:40.482Z,86.40
2023-05-06T07:58:07.161Z,87.03
2023-05-06T08:00:33.772Z,86.46
2023-05-06T08:03:01.037Z,87.18
2023-05-06T08:05:27.605Z,87.88
2023-05-06T08:07:54.291Z,85.98
2023-05-06T08:10:22.258Z,86.39
2023-05-06T08:12:49.091Z,87.48
2023-05-06T08:15:16.494Z,87.28
2023-05-06T08:17:43.484Z,86.40
2023-05-06T08:20:11.047Z,86.91
2023-05-06T08:22:37.581Z,86.51
2023-05-06T08:25:04.450Z,86.23
2023-05-06T08:27:31.372Z,85.10
2023-05-06T08:29:58.038Z,83.52
2023-05-06T08:32:24.766Z,84.30
2023-05-06T08:34:51.528Z,83.45
2023-05-06T08:37:18.240Z,83.26
2023-05-06T08:39:45.651Z,84.11
2023-05-06T08:42:12.707Z,85.22
2023-05-06T08:44:39.664Z,84.69
2023-05-06T08:47:06.550Z,83.42
2023-05-06T08:49:33.181Z,84.86
2023-05-06T08:52:04.193Z,83.64
2023-05-06T08:54:34.534Z,81.14
2023-05-06T08:57:04.598Z,80.13
2023-05-06T08:59:32.915Z,80.25
2023-05-06T09:02:03.690Z,79.20
2023-05-06T09:04:31.297Z,79.69
2023-05-06T09:06:58.993Z,79.79
2023-05-06T09:09:26.459Z,79.85
2023-05-06T09:11:54.166Z,79.93
2023-05-06T09:14:22.244Z,79.26
2023-05-06T09:16:50.846Z,78.97
2023-05-06T09:19:19.725Z,79.06
2023-05-06T09:21:48.624Z,77.97
2023-05-06T09:24:16.781Z,80.05
2023-05-06T09:26:45.183Z,78.47
2023-05-06T09:29:12.072Z,77.74
2023-05-06T09:31:44.363Z,73.58
2023-05-06T09:34:11.604Z,76.76
2023-05-06T09:36:38.614Z,77.74
2023-05-06T09:39:06.435Z,77.01
2023-05-06T09:41:33.426Z,78.10
2023-05-06T09:44:00.343Z,76.92
2023-05-06T09:46:29.519Z,76.29
2023-05-06T09:48:57.982Z,76.01
2023-05-06T09:51:26.699Z,76.37
2023-05-06T09:53:54.352Z,76.51
2023-05-06T09:56:21.630Z,75.95
2023-05-06T09:58:49.261Z,75.64
2023-05-06T10:01:32.848Z,74.96
2023-05-06T10:04:08.383Z,74.27
2023-05-06T10:06:39.724Z,74.08
2023-05-06T10:09:08.357Z,74.13
2023-05-06T10:11:35.800Z,74.14
2023-05-06T10:14:03.097Z,73.53
2023-05-06T10:16:31.461Z,73.05
2023-05-06T10:18:59.916Z,72.83
2023-05-06T10:21:28.028Z,72.52
2023-05-06T10:24:01.916Z,71.46
2023-05-06T10:26:34.239Z,64.38
2023-05-06T10:29:03.745Z,69.85
2023-05-06T10:34:26.561Z,69.26
2023-05-06T10:36:57.576Z,68.07
2023-05-06T10:39:25.576Z,69.87
2023-05-06T10:41:52.191Z,70.39
2023-05-06T10:44:38.686Z,69.92
2023-05-06T10:47:05.768Z,68.41
2023-05-06T10:49:32.349Z,68.26
2023-05-06T10:52:12.968Z,67.29
2023-05-06T10:54:51.548Z,66.63
2023-05-06T10:57:18.602Z,68.04
2023-05-06T10:59:47.097Z,62.90
2023-05-06T11:02:14.743Z,65.28
2023-05-06T11:04:41.868Z,65.28
2023-05-06T11:07:13.924Z,65.79
2023-05-06T11:10:02.612Z,58.67
2023-05-06T11:12:49.538Z,57.74
2023-05-06T11:15:22.098Z,60.48
2023-05-06T11:17:48.779Z,63.54
2023-05-06T11:20:26.698Z,58.69
2023-05-06T11:22:54.056Z,64.16
2023-05-06T11:25:39.445Z,61.37
2023-05-06T11:28:11.949Z,59.58
2023-05-06T11:30:41.562Z,63.25
2023-05-06T11:33:09.773Z,62.20
2023-05-06T11:35:37.701Z,62.40
2023-05-06T11:38:05.104Z,61.72
2023-05-06T11:40:32.333Z,61.60
2023-05-06T11:43:17.318Z,58.38
2023-05-06T11:45:48.480Z,57.87
2023-05-06T11:48:15.868Z,60.60
2023-05-06T11:50:49.195Z,58.32
2023-05-06T11:53:21.390Z,60.55
2023-05-06T11:55:49.349Z,60.22
2023-05-06T11:58:26.767Z,60.88
2023-05-06T12:00:58.849Z,59.95
2023-05-06T12:03:26.926Z,59.79
2023-05-06T12:05:54.043Z,59.29
2023-05-06T12:08:27.823Z,57.34
2023-05-06T12:10:58.247Z,58.41
2023-05-06T12:13:25.260Z,59.21
2023-05-06T12:15:55.094Z,58.20
2023-05-06T12:18:23.163Z,57.82
2023-05-06T12:23:54.331Z,56.48
2023-05-06T12:26:22.451Z,57.37
2023-05-06T12:29:13.998Z,53.35
2023-05-06T12:31:40.661Z,57.30
2023-05-06T12:34:07.351Z,56.50
2023-05-06T12:36:39.560Z,57.66
2023-05-06T12:39:06.385Z,56.03
2023-05-06T12:41:47.670Z,52.49
2023-05-06T12:44:39.566Z,51.71
2023-05-06T12:47:09.786Z,54.61
2023-05-06T12:49:52.267Z,52.31
2023-05-06T12:52:21.554Z,54.71
2023-05-06T12:54:49.011Z,54.33
2023-05-06T12:57:16.432Z,54.19
2023-05-06T12:59:45.661Z,52.91
2023-05-06T13:02:13.019Z,53.15
2023-05-06T13:04:39.946Z,53.15
2023-05-06T13:07:07.381Z,53.01
2023-05-06T13:09:34.384Z,52.83
2023-05-06T13:12:02.753Z,53.15
2023-05-06T13:14:29.348Z,52.88
2023-05-06T13:16:56.417Z,52.78
2023-05-06T13:19:32.163Z,52.96
2023-05-06T13:22:00.815Z,52.25
2023-05-06T13:24:28.184Z,51.45
2023-05-06T13:26:56.485Z,51.70
2023-05-06T13:29:23.762Z,51.43
2023-05-06T13:31:51.051Z,51.53
2023-05-06T13:34:17.799Z,51.04
2023-05-06T13:36:44.484Z,51.58
2023-05-06T13:39:11.525Z,50.51
2023-05-06T13:41:38.130Z,51.03
2023-05-06T13:44:05.076Z,50.05
2023-05-06T13:46:31.902Z,50.12
2023-05-06T13:48:58.829Z,50.38
2023-05-06T13:51:29.374Z,50.14
2023-05-06T13:53:56.278Z,49.88
2023-05-06T13:56:22.994Z,49.91
2023-05-06T13:58:50.031Z,49.39
2023-05-06T14:01:16.880Z,49.03
2023-05-06T14:03:43.426Z,48.15
2023-05-06T14:06:09.992Z,47.83
2023-05-06T14:08:36.581Z,46.52
2023-05-06T14:11:03.220Z,47.09
2023-05-06T14:13:31.479Z,46.70
2023-05-06T14:15:58.437Z,46.24
2023-05-06T14:18:26.594Z,46.03
2023-05-06T14:20:53.848Z,45.90
2023-05-06T14:23:20.529Z,44.37
2023-05-06T14:25:47.138Z,44.77
2023-05-06T14:28:14.686Z,45.08
2023-05-06T14:30:41.738Z,44.56
2023-05-06T14:33:11.600Z,43.69
2023-05-06T14:35:42.764Z,42.86
2023-05-06T14:38:11.031Z,44.95
2023-05-06T14:40:38.771Z,44.36
2023-05-06T14:43:07.357Z,43.69
2023-05-06T14:45:34.050Z,42.87
2023-05-06T14:48:00.867Z,43.76
2023-05-06T14:50:27.446Z,43.32
2023-05-06T14:52:54.059Z,43.34
2023-05-06T14:55:20.747Z,43.44
2023-05-06T14:57:47.374Z,42.02
2023-05-06T15:00:14.925Z,42.57
2023-05-06T15:02:42.192Z,42.39
2023-05-06T15:05:10.303Z,41.64
2023-05-06T15:07:37.158Z,42.21
2023-05-06T15:10:04.238Z,42.00
2023-05-06T15:12:31.743Z,42.24
2023-05-06T15:14:58.535Z,42.11
2023-05-06T15:17:25.241Z,42.52
2023-05-06T15:19:52.024Z,42.30
2023-05-06T15:22:18.781Z,42.37
2023-05-06T15:24:45.568Z,42.04
2023-05-06T15:27:12.152Z,42.28
2023-05-06T15:29:39.308Z,42.40
2023-05-06T15:32:06.387Z,42.69
2023-05-06T15:34:33.132Z,42.42
2023-05-06T15:37:01.978Z,42.49
2023-05-06T15:39:28.848Z,42.19
2023-05-06T15:41:59.109Z,42.45
2023-05-06T15:44:27.125Z,42.30
2023-05-06T15:46:54.066Z,42.29
2023-05-06T15:51:50.342Z,42.65
2023-05-06T15:54:19.852Z,42.65
2023-05-06T15:56:46.726Z,42.60
2023-05-06T15:59:13.584Z,42.44
2023-05-06T16:04:10.875Z,42.46
2023-05-06T16:06:37.850Z,42.46
2023-05-06T16:09:04.432Z,42.67
2023-05-06T16:11:31.048Z,42.40
2023-05-06T16:13:58.015Z,42.71
2023-05-06T16:16:24.650Z,42.86
2023-05-06T16:18:51.228Z,42.77
2023-05-06T16:21:17.961Z,42.91
2023-05-06T16:23:44.542Z,42.37
2023-05-06T16:26:11.266Z,42.44
2023-05-06T16:28:40.043Z,42.70
2023-05-06T16:31:07.323Z,42.57
2023-05-06T16:33:34.159Z,42.59
2023-05-06T16:36:00.764Z,43.01
2023-05-06T16:38:27.452Z,43.02
2023-05-06T16:40:54.094Z,42.87
2023-05-06T16:43:20.729Z,43.06
2023-05-06T16:45:47.322Z,42.72
2023-05-06T16:48:14.688Z,42.68
2023-05-06T16:50:42.232Z,42.72
2023-05-06T16:53:08.837Z,42.86
2023-05-06T16:58:30.116Z,42.85
2023-05-06T17:00:56.776Z,42.90
2023-05-06T17:03:23.436Z,43.10
2023-05-06T17:05:58.052Z,42.51
2023-05-06T17:08:26.871Z,42.61
2023-05-06T17:10:53.729Z,42.89
2023-05-06T17:13:20.498Z,43.01
2023-05-06T17:18:41.388Z,42.66
2023-05-06T17:21:08.968Z,42.95
2023-05-06T17:23:35.712Z,42.99
2023-05-06T17:28:29.482Z,43.34
2023-05-06T17:30:56.051Z,43.06
2023-05-06T17:33:22.628Z,43.43
2023-05-06T17:38:43.401Z,43.70
2023-05-06T17:41:10.060Z,44.16
2023-05-06T17:43:36.996Z,44.58
2023-05-06T17:48:58.011Z,44.47
2023-05-06T17:51:24.552Z,45.44
2023-05-06T17:53:51.796Z,46.86
2023-05-06T17:56:20.353Z,50.67
2023-05-06T17:58:49.900Z,48.96
2023-05-06T18:01:17.052Z,51.56
2023-05-06T18:03:44.855Z,51.03
2023-05-06T18:06:12.600Z,51.83
2023-05-06T18:08:39.213Z,52.90
2023-05-06T18:14:00.787Z,55.40
2023-05-06T18:16:27.358Z,56.87
2023-05-06T18:18:54.095Z,56.08
2023-05-06T18:21:20.818Z,57.26
2023-05-06T18:23:48.564Z,58.15
2023-05-06T18:26:27.245Z,58.69
2023-05-06T18:29:05.278Z,58.98
2023-05-06T18:31:31.922Z,60.07
2023-05-06T18:33:58.598Z,59.61
2023-05-06T18:36:25.551Z,60.09
2023-05-06T18:38:52.199Z,60.79
2023-05-06T18:41:18.720Z,61.54
2023-05-06T18:43:45.314Z,61.79
2023-05-06T18:46:12.039Z,62.52
2023-05-06T18:48:38.611Z,62.95
2023-05-06T18:51:12.993Z,64.18
2023-05-06T18:53:40.030Z,62.54
2023-05-06T18:56:07.661Z,62.75
2023-05-06T18:58:37.021Z,63.09
2023-05-06T19:01:07.944Z,63.54
2023-05-06T19:03:35.712Z,63.12
2023-05-06T19:06:04.744Z,63.47
2023-05-06T19:08:32.312Z,64.03
2023-05-06T19:11:00.148Z,64.40
2023-05-06T19:13:27.511Z,64.39
2023-05-06T19:15:54.551Z,64.42
2023-05-06T19:18:21.066Z,64.17
2023-05-06T19:20:47.824Z,64.13
2023-05-06T19:23:14.419Z,64.59
2023-05-06T19:25:41.213Z,64.51
2023-05-06T19:28:09.536Z,64.62
2023-05-06T19:30:36.443Z,64.80
2023-05-06T19:33:04.089Z,65.40
2023-05-06T19:35:30.824Z,65.14
2023-05-06T19:37:57.863Z,65.11
2023-05-06T19:40:25.384Z,65.13
2023-05-06T19:42:52.323Z,64.92
2023-05-06T19:45:19.490Z,65.33
2023-05-06T19:47:46.406Z,65.82
2023-05-06T19:50:13.294Z,65.78
2023-05-06T19:52:40.062Z,65.87
2023-05-06T19:55:07.385Z,66.00
2023-05-06T19:57:34.195Z,65.88
2023-05-06T20:00:05.359Z,66.28
2023-05-06T20:02:32.953Z,66.29
2023-05-06T20:05:00.749Z,65.75
2023-05-06T20:07:27.633Z,65.64
2023-05-06T20:09:55.993Z,65.62
2023-05-06T20:12:24.308Z,65.28
2023-05-06T20:14:50.954Z,65.05
2023-05-06T20:17:17.533Z,65.61
2023-05-06T20:19:45.219Z,65.59
2023-05-06T20:22:11.825Z,65.31
2023-05-06T20:24:38.591Z,65.34
2023-05-06T20:27:05.324Z,65.32
2023-05-06T20:29:32.748Z,65.22
2023-05-06T20:32:02.053Z,65.26
2023-05-06T20:34:29.096Z,65.07
2023-05-06T20:36:56.185Z,65.26
2023-05-06T20:39:23.627Z,65.54
2023-05-06T20:41:50.383Z,65.31
2023-05-06T20:44:16.969Z,65.55
2023-05-06T20:46:44.199Z,65.83
2023-05-06T20:49:10.976Z,65.86
2023-05-06T20:51:37.525Z,66.12
2023-05-06T20:54:04.153Z,65.95
2023-05-06T20:56:30.680Z,66.17
2023-05-06T20:58:57.178Z,66.83
2023-05-06T21:01:25.574Z,66.55
2023-05-06T21:03:52.527Z,65.75
2023-05-06T21:06:19.618Z,66.61
2023-05-06T21:08:47.043Z,66.70
2023-05-06T21:11:13.992Z,65.65
2023-05-06T21:13:40.952Z,65.31
2023-05-06T21:16:07.683Z,66.37
2023-05-06T21:18:34.753Z,66.42
2023-05-06T21:21:01.558Z,66.67
2023-05-06T21:23:28.057Z,66.67
2023-05-06T21:25:54.664Z,66.42
2023-05-06T21:28:21.327Z,65.62
2023-05-06T21:30:48.117Z,66.12
2023-05-06T21:33:14.923Z,67.06
2023-05-06T21:35:41.448Z,67.21
2023-05-06T21:38:08.059Z,67.43
2023-05-06T21:40:35.330Z,67.05
2023-05-06T21:43:02.825Z,68.22
2023-05-06T21:45:29.393Z,67.02
2023-05-06T21:47:56.048Z,67.20
2023-05-06T21:50:23.073Z,67.81
2023-05-06T21:52:49.815Z,67.71
2023-05-06T21:55:16.479Z,68.43
2023-05-06T21:57:44.525Z,68.16
2023-05-06T22:00:12.575Z,68.51
2023-05-06T22:02:40.318Z,68.84
2023-05-06T22:05:08.313Z,68.60
2023-05-06T22:07:36.036Z,68.49
2023-05-06T22:10:03.214Z,69.04
2023-05-06T22:12:30.204Z,68.37
2023-05-06T22:14:56.868Z,68.61
2023-05-06T22:17:24.277Z,69.16
2023-05-06T22:19:51.856Z,69.63
2023-05-06T22:22:18.766Z,69.47
2023-05-06T22:24:45.376Z,69.69
2023-05-06T22:27:12.207Z,68.55
2023-05-06T22:29:39.182Z,68.11
2023-05-06T22:32:06.247Z,69.08
2023-05-06T22:34:33.148Z,69.51
2023-05-06T22:37:00.934Z,69.30
2023-05-06T22:39:27.867Z,69.66
2023-05-06T22:41:54.628Z,68.73
2023-05-06T22:44:21.353Z,69.11
2023-05-06T22:46:47.928Z,69.95
2023-05-06T22:49:15.973Z,69.87
2023-05-06T22:51:43.127Z,69.94
2023-05-06T22:54:10.981Z,70.75
2023-05-06T22:56:37.743Z,69.80
2023-05-06T22:59:05.621Z,70.11
2023-05-06T23:01:32.771Z,70.13
2023-05-06T23:03:59.677Z,70.36
2023-05-06T23:06:27.927Z,69.97
2023-05-06T23:08:54.445Z,70.70
2023-05-06T23:11:21.225Z,70.49
2023-05-06T23:13:48.063Z,71.17
2023-05-06T23:16:14.738Z,70.79
2023-05-06T23:18:41.816Z,70.43
2023-05-06T23:21:09.250Z,70.89
2023-05-06T23:23:35.976Z,71.57
2023-05-06T23:26:02.690Z,71.42
2023-05-06T23:28:29.390Z,71.36
2023-05-06T23:30:56.072Z,71.09
2023-05-06T23:33:22.795Z,71.64
2023-05-06T23:35:49.434Z,71.24
2023-05-06T23:38:16.129Z,71.19
2023-05-06T23:40:42.904Z,71.13
2023-05-06T23:43:11.700Z,70.91
2023-05-06T23:45:38.398Z,71.28
2023-05-06T23:48:06.769Z,71.84
2023-05-06T23:50:33.619Z,71.85
2023-05-06T23:53:00.425Z,71.45
2023-05-06T23:55:27.724Z,71.59
2023-05-06T23:57:54.274Z,71.59
